22:19
Airports
Links
Donate
Help keep this website running!
PayPal
Bitcoin
METAR
KBKF 172158Z 05003KT 10SM BKN200 24/M13 A3014 RMK AO2A SLP150 T02361127
Current Weather Conditions at KBKF
VFR 21:58:00 17-10-17
Automated station
Altimeter:30.14 hg
Temp:23.6°c 73°f
Dew point:-12.7°c 10°f
Wind:3 knots, 3.5 mph, 2 m/s, from 50°
Visibility:10.0 statute miles
20000(BKN) Broken
Past METAR reports
VFR 20:58:00 17-10-17
Automated station
Altimeter:30.14 hg
Temp:23.9°c 73°f
Dew point:-14.9°cf
Wind:0 knots, 0 mph, 0 m/s,
Variable direction
Visibility:10.0 statute miles
20000(SCT) Scattered
KBKF 172058Z 00000KT 10SM SCT200 24/M15 A3014 RMK AO2A SLP154 T02391149 57025
VFR 19:58:00 17-10-17
Automated station
Altimeter:30.16 hg
Temp:23.3°c 73°f
Dew point:-15.7°cf
Wind:0 knots, 0 mph, 0 m/s,
Variable direction
Visibility:10.0 statute miles
20000(FEW) A few
KBKF 171958Z 00000KT 10SM FEW200 23/M16 A3016 RMK AO2A SLP161 T02331157
VFR 18:58:00 17-10-17
Automated station
Altimeter:30.20 hg
Temp:23.1°c 73°f
Dew point:-14.4°cf
Wind:4 knots, 4.6 mph, 2 m/s, from 200°
Visibility:10.0 statute miles
22000(FEW) A few
KBKF 171858Z 20004KT 10SM FEW220 23/M14 A3020 RMK AO2A SLP175 T02311144
VFR 17:58:00 17-10-17
Automated station
Altimeter:30.23 hg
Temp:21.7°c 70°f
Dew point:-12.9°c 10°f
Wind:4 knots, 4.6 mph, 2 m/s, from 180°
Visibility:10.0 statute miles
22000(FEW) A few
KBKF 171758Z 18004KT 10SM FEW220 22/M13 A3023 RMK AO2A SLP185 T02171129 10217 20050 57015
VFR 16:58:00 17-10-17
Automated station
Altimeter:30.26 hg
Temp:19.0°c 66°f
Dew point:-9.3°c 16°f
Wind:7 knots, 8.1 mph, 4 m/s, from 210°
Visibility:10.0 statute miles
22000(FEW) A few
KBKF 171658Z 21007KT 10SM FEW220 19/M09 A3026 RMK AO2A SLP200 T01901093
TAF
TAF KBKF 171705Z 1717/1823 20009KT 9999 FEW200 QNH3022INS BECMG 1719/1720 08009KT 9999 FEW200 QNH3015INS BECMG 1801/1802 19009KT 9999 SKC QNH3012INS BECMG 1815/1816 10009KT 9999 FEW150 QNH3016INS TX25/1722Z TN06/1813Z
Forecast at KBKF
17:00 17-10-17 to 19:00 17-10-17
Wind:9 Knots from 200°
Visibility:6.21 statute miles
20000FEW A few
BECMG 19:00 17-10-17 to 01:00 18-10-17
Wind:9 Knots from 80°
Visibility:6.21 statute miles
20000FEW A few
BECMG 01:00 18-10-17 to 15:00 18-10-17
Wind:9 Knots from 190°
Visibility:6.21 statute miles
SKC Clear
BECMG 15:00 18-10-17 to 23:00 18-10-17
Wind:9 Knots from 100°
Visibility:6.21 statute miles
15000FEW A few